sensor_id;sensor_type;location;lat;lon;timestamp;P1;durP1;ratioP1;P2;durP2;ratioP2
15567;SDS011;7885;42.596;23.044;2022-11-15T00:01:18;88.87;;;54.87;;
15567;SDS011;7885;42.596;23.044;2022-11-15T00:03:45;87.27;;;54.43;;
15567;SDS011;7885;42.596;23.044;2022-11-15T00:06:12;104.03;;;63.00;;
15567;SDS011;7885;42.596;23.044;2022-11-15T00:08:39;44.50;;;29.23;;
15567;SDS011;7885;42.596;23.044;2022-11-15T00:11:06;49.73;;;33.37;;
15567;SDS011;7885;42.596;23.044;2022-11-15T00:13:33;45.77;;;31.00;;
15567;SDS011;7885;42.596;23.044;2022-11-15T00:16:01;36.93;;;25.83;;
15567;SDS011;7885;42.596;23.044;2022-11-15T00:18:29;58.33;;;39.30;;
15567;SDS011;7885;42.596;23.044;2022-11-15T00:20:56;49.57;;;32.27;;
15567;SDS011;7885;42.596;23.044;2022-11-15T00:23:30;48.30;;;32.70;;
15567;SDS011;7885;42.596;23.044;2022-11-15T00:25:57;51.63;;;36.33;;
15567;SDS011;7885;42.596;23.044;2022-11-15T00:28:24;57.47;;;38.97;;
15567;SDS011;7885;42.596;23.044;2022-11-15T00:30:51;68.97;;;46.17;;
15567;SDS011;7885;42.596;23.044;2022-11-15T00:33:20;56.67;;;41.53;;
15567;SDS011;7885;42.596;23.044;2022-11-15T00:35:47;62.47;;;41.37;;
15567;SDS011;7885;42.596;23.044;2022-11-15T00:38:14;55.03;;;39.40;;
15567;SDS011;7885;42.596;23.044;2022-11-15T00:40:40;59.30;;;42.00;;
15567;SDS011;7885;42.596;23.044;2022-11-15T00:43:07;62.37;;;41.27;;
15567;SDS011;7885;42.596;23.044;2022-11-15T00:45:34;80.40;;;50.10;;
15567;SDS011;7885;42.596;23.044;2022-11-15T00:48:01;77.73;;;49.90;;
15567;SDS011;7885;42.596;23.044;2022-11-15T00:50:29;82.37;;;51.97;;
15567;SDS011;7885;42.596;23.044;2022-11-15T00:52:56;74.77;;;50.30;;
15567;SDS011;7885;42.596;23.044;2022-11-15T00:55:23;74.20;;;46.47;;
15567;SDS011;7885;42.596;23.044;2022-11-15T00:57:49;74.33;;;46.97;;
15567;SDS011;7885;42.596;23.044;2022-11-15T01:00:16;70.80;;;47.10;;
15567;SDS011;7885;42.596;23.044;2022-11-15T01:02:43;69.93;;;45.10;;
15567;SDS011;7885;42.596;23.044;2022-11-15T01:05:10;72.57;;;46.33;;
15567;SDS011;7885;42.596;23.044;2022-11-15T01:07:38;66.03;;;44.13;;
15567;SDS011;7885;42.596;23.044;2022-11-15T01:10:05;55.87;;;37.40;;
15567;SDS011;7885;42.596;23.044;2022-11-15T01:12:32;55.27;;;37.10;;
15567;SDS011;7885;42.596;23.044;2022-11-15T01:15:00;50.87;;;34.63;;
15567;SDS011;7885;42.596;23.044;2022-11-15T01:17:26;55.60;;;37.10;;
15567;SDS011;7885;42.596;23.044;2022-11-15T01:19:53;50.00;;;34.00;;
15567;SDS011;7885;42.596;23.044;2022-11-15T01:22:20;52.47;;;37.30;;
15567;SDS011;7885;42.596;23.044;2022-11-15T01:24:48;60.23;;;41.20;;
15567;SDS011;7885;42.596;23.044;2022-11-15T01:27:15;72.57;;;46.93;;
15567;SDS011;7885;42.596;23.044;2022-11-15T01:29:42;68.53;;;46.97;;
15567;SDS011;7885;42.596;23.044;2022-11-15T01:32:09;56.90;;;39.43;;
15567;SDS011;7885;42.596;23.044;2022-11-15T01:34:35;61.90;;;41.27;;
15567;SDS011;7885;42.596;23.044;2022-11-15T01:37:02;66.47;;;42.73;;
15567;SDS011;7885;42.596;23.044;2022-11-15T01:39:29;58.47;;;40.13;;
15567;SDS011;7885;42.596;23.044;2022-11-15T01:41:57;73.43;;;45.53;;
15567;SDS011;7885;42.596;23.044;2022-11-15T01:44:38;66.63;;;42.53;;
15567;SDS011;7885;42.596;23.044;2022-11-15T01:47:11;50.33;;;31.90;;
15567;SDS011;7885;42.596;23.044;2022-11-15T01:49:55;46.73;;;31.77;;
15567;SDS011;7885;42.596;23.044;2022-11-15T01:52:26;52.03;;;35.43;;
15567;SDS011;7885;42.596;23.044;2022-11-15T01:54:58;50.10;;;32.57;;
15567;SDS011;7885;42.596;23.044;2022-11-15T01:57:33;46.87;;;31.60;;
15567;SDS011;7885;42.596;23.044;2022-11-15T02:00:00;51.17;;;35.13;;
15567;SDS011;7885;42.596;23.044;2022-11-15T02:02:30;55.30;;;36.87;;
15567;SDS011;7885;42.596;23.044;2022-11-15T02:04:57;49.77;;;38.93;;
15567;SDS011;7885;42.596;23.044;2022-11-15T02:07:24;50.27;;;35.57;;
15567;SDS011;7885;42.596;23.044;2022-11-15T02:09:52;56.20;;;37.07;;
15567;SDS011;7885;42.596;23.044;2022-11-15T02:12:20;42.80;;;29.73;;
15567;SDS011;7885;42.596;23.044;2022-11-15T02:21:33;51.70;;;30.73;;
15567;SDS011;7885;42.596;23.044;2022-11-15T02:24:25;51.67;;;30.57;;
15567;SDS011;7885;42.596;23.044;2022-11-15T02:33:07;37.10;;;25.13;;
15567;SDS011;7885;42.596;23.044;2022-11-15T02:35:43;42.07;;;28.97;;
15567;SDS011;7885;42.596;23.044;2022-11-15T02:38:17;42.53;;;28.60;;
15567;SDS011;7885;42.596;23.044;2022-11-15T02:40:55;40.77;;;27.53;;
15567;SDS011;7885;42.596;23.044;2022-11-15T02:43:38;42.10;;;26.77;;
15567;SDS011;7885;42.596;23.044;2022-11-15T02:46:26;39.80;;;28.00;;
15567;SDS011;7885;42.596;23.044;2022-11-15T02:49:15;40.33;;;25.23;;
15567;SDS011;7885;42.596;23.044;2022-11-15T02:51:42;46.00;;;29.97;;
15567;SDS011;7885;42.596;23.044;2022-11-15T02:54:12;44.67;;;30.10;;
15567;SDS011;7885;42.596;23.044;2022-11-15T02:56:41;59.43;;;38.87;;
15567;SDS011;7885;42.596;23.044;2022-11-15T02:59:18;58.10;;;37.60;;
15567;SDS011;7885;42.596;23.044;2022-11-15T03:02:11;51.00;;;34.47;;
15567;SDS011;7885;42.596;23.044;2022-11-15T03:04:49;67.00;;;42.17;;
15567;SDS011;7885;42.596;23.044;2022-11-15T03:07:23;60.10;;;37.70;;
15567;SDS011;7885;42.596;23.044;2022-11-15T03:09:56;59.77;;;39.57;;
15567;SDS011;7885;42.596;23.044;2022-11-15T03:12:30;55.80;;;37.00;;
15567;SDS011;7885;42.596;23.044;2022-11-15T03:15:05;67.80;;;42.20;;
15567;SDS011;7885;42.596;23.044;2022-11-15T03:17:37;72.90;;;48.90;;
15567;SDS011;7885;42.596;23.044;2022-11-15T03:20:11;69.50;;;45.20;;
15567;SDS011;7885;42.596;23.044;2022-11-15T03:22:42;57.20;;;37.70;;
15567;SDS011;7885;42.596;23.044;2022-11-15T03:25:12;65.40;;;42.67;;
15567;SDS011;7885;42.596;23.044;2022-11-15T03:27:44;55.03;;;38.03;;
15567;SDS011;7885;42.596;23.044;2022-11-15T03:30:16;61.63;;;41.03;;
15567;SDS011;7885;42.596;23.044;2022-11-15T03:32:46;57.50;;;38.33;;
15567;SDS011;7885;42.596;23.044;2022-11-15T03:35:18;64.77;;;40.67;;
15567;SDS011;7885;42.596;23.044;2022-11-15T03:37:49;69.50;;;43.53;;
15567;SDS011;7885;42.596;23.044;2022-11-15T03:40:21;58.03;;;37.80;;
15567;SDS011;7885;42.596;23.044;2022-11-15T03:42:54;63.27;;;39.80;;
15567;SDS011;7885;42.596;23.044;2022-11-15T03:45:28;61.33;;;39.63;;
15567;SDS011;7885;42.596;23.044;2022-11-15T03:48:05;57.90;;;38.10;;
15567;SDS011;7885;42.596;23.044;2022-11-15T03:50:37;58.73;;;38.43;;
15567;SDS011;7885;42.596;23.044;2022-11-15T03:53:05;61.30;;;37.53;;
15567;SDS011;7885;42.596;23.044;2022-11-15T03:55:32;59.27;;;36.30;;
15567;SDS011;7885;42.596;23.044;2022-11-15T03:57:59;79.60;;;42.43;;
15567;SDS011;7885;42.596;23.044;2022-11-15T04:00:27;65.20;;;37.53;;
15567;SDS011;7885;42.596;23.044;2022-11-15T04:02:54;63.13;;;40.60;;
15567;SDS011;7885;42.596;23.044;2022-11-15T04:05:22;66.93;;;42.83;;
15567;SDS011;7885;42.596;23.044;2022-11-15T04:07:48;48.87;;;31.33;;
15567;SDS011;7885;42.596;23.044;2022-11-15T04:10:15;50.60;;;30.47;;
15567;SDS011;7885;42.596;23.044;2022-11-15T04:12:43;56.60;;;33.57;;
15567;SDS011;7885;42.596;23.044;2022-11-15T04:15:13;57.03;;;37.27;;
15567;SDS011;7885;42.596;23.044;2022-11-15T04:17:41;58.30;;;39.77;;
15567;SDS011;7885;42.596;23.044;2022-11-15T04:20:10;64.43;;;37.97;;
15567;SDS011;7885;42.596;23.044;2022-11-15T04:22:58;58.00;;;38.47;;
15567;SDS011;7885;42.596;23.044;2022-11-15T04:25:44;51.07;;;32.20;;
15567;SDS011;7885;42.596;23.044;2022-11-15T04:28:12;45.80;;;30.37;;
15567;SDS011;7885;42.596;23.044;2022-11-15T04:30:39;48.13;;;29.40;;
15567;SDS011;7885;42.596;23.044;2022-11-15T04:33:06;47.33;;;29.03;;
15567;SDS011;7885;42.596;23.044;2022-11-15T04:35:33;48.50;;;29.63;;
15567;SDS011;7885;42.596;23.044;2022-11-15T04:38:01;46.90;;;30.63;;
15567;SDS011;7885;42.596;23.044;2022-11-15T04:40:29;51.97;;;32.93;;
15567;SDS011;7885;42.596;23.044;2022-11-15T04:42:56;50.60;;;33.03;;
15567;SDS011;7885;42.596;23.044;2022-11-15T04:45:23;53.33;;;35.40;;
15567;SDS011;7885;42.596;23.044;2022-11-15T04:47:50;51.93;;;34.37;;
15567;SDS011;7885;42.596;23.044;2022-11-15T04:50:17;50.97;;;31.33;;
15567;SDS011;7885;42.596;23.044;2022-11-15T04:52:49;52.20;;;32.23;;
15567;SDS011;7885;42.596;23.044;2022-11-15T04:55:19;56.97;;;35.23;;
15567;SDS011;7885;42.596;23.044;2022-11-15T04:57:46;61.40;;;35.57;;
15567;SDS011;7885;42.596;23.044;2022-11-15T05:00:13;50.40;;;34.20;;
15567;SDS011;7885;42.596;23.044;2022-11-15T05:02:42;49.07;;;31.13;;
15567;SDS011;7885;42.596;23.044;2022-11-15T05:05:26;48.73;;;31.00;;
15567;SDS011;7885;42.596;23.044;2022-11-15T05:07:53;50.93;;;31.57;;
15567;SDS011;7885;42.596;23.044;2022-11-15T05:10:21;46.93;;;31.77;;
15567;SDS011;7885;42.596;23.044;2022-11-15T05:12:48;47.87;;;31.37;;
15567;SDS011;7885;42.596;23.044;2022-11-15T05:15:15;52.03;;;32.03;;
15567;SDS011;7885;42.596;23.044;2022-11-15T05:17:42;45.70;;;28.70;;
15567;SDS011;7885;42.596;23.044;2022-11-15T05:20:09;46.70;;;29.33;;
15567;SDS011;7885;42.596;23.044;2022-11-15T05:22:37;50.77;;;29.93;;
15567;SDS011;7885;42.596;23.044;2022-11-15T05:25:04;50.93;;;28.73;;
15567;SDS011;7885;42.596;23.044;2022-11-15T05:27:33;40.73;;;27.10;;
15567;SDS011;7885;42.596;23.044;2022-11-15T05:30:00;41.27;;;27.50;;
15567;SDS011;7885;42.596;23.044;2022-11-15T05:32:27;45.37;;;29.33;;
15567;SDS011;7885;42.596;23.044;2022-11-15T05:34:54;47.23;;;29.17;;
15567;SDS011;7885;42.596;23.044;2022-11-15T05:37:21;44.37;;;30.47;;
15567;SDS011;7885;42.596;23.044;2022-11-15T05:39:48;54.87;;;38.70;;
15567;SDS011;7885;42.596;23.044;2022-11-15T05:42:15;51.23;;;29.33;;
15567;SDS011;7885;42.596;23.044;2022-11-15T05:44:44;46.90;;;32.17;;
15567;SDS011;7885;42.596;23.044;2022-11-15T05:47:14;45.03;;;32.17;;
15567;SDS011;7885;42.596;23.044;2022-11-15T05:49:44;49.33;;;32.20;;
15567;SDS011;7885;42.596;23.044;2022-11-15T05:52:13;56.63;;;37.63;;
15567;SDS011;7885;42.596;23.044;2022-11-15T05:54:43;60.17;;;29.47;;
15567;SDS011;7885;42.596;23.044;2022-11-15T05:57:10;54.00;;;33.57;;
15567;SDS011;7885;42.596;23.044;2022-11-15T05:59:37;41.97;;;26.90;;
15567;SDS011;7885;42.596;23.044;2022-11-15T06:02:07;46.17;;;28.57;;
15567;SDS011;7885;42.596;23.044;2022-11-15T06:04:34;41.80;;;26.97;;
15567;SDS011;7885;42.596;23.044;2022-11-15T06:07:00;46.77;;;30.60;;
15567;SDS011;7885;42.596;23.044;2022-11-15T06:09:27;47.43;;;31.47;;
15567;SDS011;7885;42.596;23.044;2022-11-15T06:11:54;47.10;;;30.30;;
15567;SDS011;7885;42.596;23.044;2022-11-15T06:14:21;47.87;;;30.93;;
15567;SDS011;7885;42.596;23.044;2022-11-15T06:16:47;50.40;;;31.93;;
15567;SDS011;7885;42.596;23.044;2022-11-15T06:19:15;50.00;;;31.97;;
15567;SDS011;7885;42.596;23.044;2022-11-15T06:21:42;45.53;;;33.00;;
15567;SDS011;7885;42.596;23.044;2022-11-15T06:24:09;48.23;;;33.47;;
15567;SDS011;7885;42.596;23.044;2022-11-15T06:26:36;50.23;;;33.27;;
15567;SDS011;7885;42.596;23.044;2022-11-15T06:29:03;52.83;;;35.70;;
15567;SDS011;7885;42.596;23.044;2022-11-15T06:31:30;66.83;;;50.93;;
15567;SDS011;7885;42.596;23.044;2022-11-15T06:33:57;61.37;;;46.00;;
15567;SDS011;7885;42.596;23.044;2022-11-15T06:36:25;63.43;;;41.00;;
15567;SDS011;7885;42.596;23.044;2022-11-15T06:38:52;62.00;;;39.77;;
15567;SDS011;7885;42.596;23.044;2022-11-15T06:41:18;53.57;;;38.83;;
15567;SDS011;7885;42.596;23.044;2022-11-15T06:43:46;56.80;;;38.07;;
15567;SDS011;7885;42.596;23.044;2022-11-15T06:46:13;55.00;;;37.97;;
15567;SDS011;7885;42.596;23.044;2022-11-15T06:48:39;51.03;;;39.03;;
15567;SDS011;7885;42.596;23.044;2022-11-15T06:51:06;52.53;;;39.87;;
15567;SDS011;7885;42.596;23.044;2022-11-15T06:53:35;72.47;;;48.40;;
15567;SDS011;7885;42.596;23.044;2022-11-15T06:56:03;80.63;;;60.17;;
15567;SDS011;7885;42.596;23.044;2022-11-15T06:58:31;85.67;;;65.40;;
15567;SDS011;7885;42.596;23.044;2022-11-15T07:00:58;79.17;;;63.63;;
15567;SDS011;7885;42.596;23.044;2022-11-15T07:03:26;72.93;;;57.70;;
15567;SDS011;7885;42.596;23.044;2022-11-15T07:05:53;69.30;;;52.20;;
15567;SDS011;7885;42.596;23.044;2022-11-15T07:08:20;61.03;;;45.23;;
15567;SDS011;7885;42.596;23.044;2022-11-15T07:10:49;54.83;;;42.73;;
15567;SDS011;7885;42.596;23.044;2022-11-15T07:13:16;59.80;;;44.47;;
15567;SDS011;7885;42.596;23.044;2022-11-15T07:15:43;63.10;;;45.87;;
15567;SDS011;7885;42.596;23.044;2022-11-15T07:18:09;51.03;;;44.10;;
15567;SDS011;7885;42.596;23.044;2022-11-15T07:20:36;56.63;;;42.20;;
15567;SDS011;7885;42.596;23.044;2022-11-15T07:23:04;55.60;;;44.05;;
15567;SDS011;7885;42.596;23.044;2022-11-15T07:25:32;58.97;;;44.15;;
15567;SDS011;7885;42.596;23.044;2022-11-15T07:28:01;69.50;;;49.27;;
15567;SDS011;7885;42.596;23.044;2022-11-15T07:30:28;57.83;;;45.90;;
15567;SDS011;7885;42.596;23.044;2022-11-15T07:32:56;45.43;;;38.00;;
15567;SDS011;7885;42.596;23.044;2022-11-15T07:35:24;39.67;;;34.20;;
15567;SDS011;7885;42.596;23.044;2022-11-15T07:37:55;36.67;;;30.50;;
15567;SDS011;7885;42.596;23.044;2022-11-15T07:40:22;34.40;;;28.30;;
15567;SDS011;7885;42.596;23.044;2022-11-15T07:42:49;34.60;;;26.90;;
15567;SDS011;7885;42.596;23.044;2022-11-15T07:45:20;36.17;;;27.08;;
15567;SDS011;7885;42.596;23.044;2022-11-15T07:47:48;34.15;;;27.55;;
15567;SDS011;7885;42.596;23.044;2022-11-15T07:50:15;32.15;;;27.15;;
15567;SDS011;7885;42.596;23.044;2022-11-15T07:52:42;32.35;;;28.85;;
15567;SDS011;7885;42.596;23.044;2022-11-15T07:55:09;34.90;;;28.92;;
15567;SDS011;7885;42.596;23.044;2022-11-15T07:57:36;37.28;;;30.80;;
15567;SDS011;7885;42.596;23.044;2022-11-15T08:00:04;37.92;;;30.52;;
15567;SDS011;7885;42.596;23.044;2022-11-15T08:02:33;45.00;;;32.60;;
15567;SDS011;7885;42.596;23.044;2022-11-15T08:04:59;40.65;;;31.13;;
15567;SDS011;7885;42.596;23.044;2022-11-15T08:07:28;34.50;;;30.98;;
15567;SDS011;7885;42.596;23.044;2022-11-15T08:09:55;38.72;;;32.22;;
15567;SDS011;7885;42.596;23.044;2022-11-15T08:12:22;35.85;;;31.95;;
15567;SDS011;7885;42.596;23.044;2022-11-15T08:14:49;37.95;;;33.60;;
15567;SDS011;7885;42.596;23.044;2022-11-15T08:17:16;43.47;;;36.53;;
15567;SDS011;7885;42.596;23.044;2022-11-15T08:19:44;38.95;;;34.72;;
15567;SDS011;7885;42.596;23.044;2022-11-15T08:22:10;41.58;;;34.92;;
15567;SDS011;7885;42.596;23.044;2022-11-15T08:24:38;38.60;;;32.72;;
15567;SDS011;7885;42.596;23.044;2022-11-15T08:27:05;39.50;;;31.77;;
15567;SDS011;7885;42.596;23.044;2022-11-15T08:29:40;36.67;;;26.98;;
15567;SDS011;7885;42.596;23.044;2022-11-15T08:32:07;32.85;;;29.08;;
15567;SDS011;7885;42.596;23.044;2022-11-15T08:34:34;35.35;;;28.65;;
15567;SDS011;7885;42.596;23.044;2022-11-15T08:37:02;38.35;;;31.55;;
15567;SDS011;7885;42.596;23.044;2022-11-15T08:39:35;41.53;;;35.60;;
15567;SDS011;7885;42.596;23.044;2022-11-15T08:42:04;42.58;;;35.88;;
15567;SDS011;7885;42.596;23.044;2022-11-15T08:44:31;43.22;;;36.17;;
15567;SDS011;7885;42.596;23.044;2022-11-15T08:46:58;50.92;;;39.17;;
15567;SDS011;7885;42.596;23.044;2022-11-15T08:49:25;44.40;;;36.13;;
15567;SDS011;7885;42.596;23.044;2022-11-15T08:51:51;40.47;;;35.35;;
15567;SDS011;7885;42.596;23.044;2022-11-15T08:54:19;48.85;;;37.67;;
15567;SDS011;7885;42.596;23.044;2022-11-15T08:56:46;42.63;;;34.45;;
15567;SDS011;7885;42.596;23.044;2022-11-15T08:59:13;40.60;;;32.20;;
15567;SDS011;7885;42.596;23.044;2022-11-15T09:01:40;41.80;;;32.55;;
15567;SDS011;7885;42.596;23.044;2022-11-15T09:04:06;48.08;;;33.45;;
15567;SDS011;7885;42.596;23.044;2022-11-15T09:06:33;41.88;;;30.15;;
15567;SDS011;7885;42.596;23.044;2022-11-15T09:09:00;38.55;;;30.42;;
15567;SDS011;7885;42.596;23.044;2022-11-15T09:11:28;39.67;;;29.98;;
15567;SDS011;7885;42.596;23.044;2022-11-15T09:13:55;41.75;;;29.38;;
15567;SDS011;7885;42.596;23.044;2022-11-15T09:16:22;40.58;;;27.90;;
15567;SDS011;7885;42.596;23.044;2022-11-15T09:18:49;36.85;;;27.75;;
15567;SDS011;7885;42.596;23.044;2022-11-15T09:21:16;37.65;;;28.35;;
15567;SDS011;7885;42.596;23.044;2022-11-15T09:23:42;38.42;;;28.05;;
15567;SDS011;7885;42.596;23.044;2022-11-15T09:26:09;46.97;;;32.20;;
15567;SDS011;7885;42.596;23.044;2022-11-15T09:28:37;40.60;;;30.48;;
15567;SDS011;7885;42.596;23.044;2022-11-15T09:31:07;37.78;;;31.58;;
15567;SDS011;7885;42.596;23.044;2022-11-15T09:33:34;36.85;;;31.40;;
15567;SDS011;7885;42.596;23.044;2022-11-15T09:36:02;37.38;;;29.55;;
15567;SDS011;7885;42.596;23.044;2022-11-15T09:38:31;34.85;;;27.75;;
15567;SDS011;7885;42.596;23.044;2022-11-15T09:41:08;33.70;;;25.88;;
15567;SDS011;7885;42.596;23.044;2022-11-15T09:43:50;31.23;;;26.73;;
15567;SDS011;7885;42.596;23.044;2022-11-15T09:46:27;26.90;;;23.98;;
15567;SDS011;7885;42.596;23.044;2022-11-15T09:52:27;29.73;;;24.42;;
15567;SDS011;7885;42.596;23.044;2022-11-15T09:54:54;30.38;;;25.30;;
15567;SDS011;7885;42.596;23.044;2022-11-15T09:57:23;30.52;;;25.38;;
15567;SDS011;7885;42.596;23.044;2022-11-15T10:02:56;32.00;;;24.27;;
15567;SDS011;7885;42.596;23.044;2022-11-15T10:05:30;29.52;;;23.25;;
15567;SDS011;7885;42.596;23.044;2022-11-15T10:08:03;28.48;;;22.05;;
15567;SDS011;7885;42.596;23.044;2022-11-15T10:10:44;27.95;;;21.30;;
15567;SDS011;7885;42.596;23.044;2022-11-15T10:13:16;29.52;;;23.13;;
15567;SDS011;7885;42.596;23.044;2022-11-15T10:15:50;28.70;;;22.77;;
15567;SDS011;7885;42.596;23.044;2022-11-15T10:18:19;29.27;;;23.10;;
15567;SDS011;7885;42.596;23.044;2022-11-15T10:20:55;27.58;;;23.67;;
15567;SDS011;7885;42.596;23.044;2022-11-15T10:23:25;30.45;;;23.42;;
15567;SDS011;7885;42.596;23.044;2022-11-15T10:25:54;30.35;;;25.05;;
15567;SDS011;7885;42.596;23.044;2022-11-15T10:28:25;32.47;;;22.13;;
15567;SDS011;7885;42.596;23.044;2022-11-15T10:30:55;31.55;;;23.63;;
15567;SDS011;7885;42.596;23.044;2022-11-15T10:33:25;27.02;;;20.75;;
15567;SDS011;7885;42.596;23.044;2022-11-15T10:38:55;24.90;;;19.40;;
15567;SDS011;7885;42.596;23.044;2022-11-15T10:41:36;24.20;;;18.42;;
15567;SDS011;7885;42.596;23.044;2022-11-15T10:44:17;22.80;;;18.27;;
15567;SDS011;7885;42.596;23.044;2022-11-15T10:50:25;19.88;;;14.50;;
15567;SDS011;7885;42.596;23.044;2022-11-15T10:52:58;16.52;;;14.50;;
15567;SDS011;7885;42.596;23.044;2022-11-15T10:55:28;21.02;;;14.85;;
15567;SDS011;7885;42.596;23.044;2022-11-15T10:58:00;22.05;;;15.95;;
15567;SDS011;7885;42.596;23.044;2022-11-15T11:00:32;20.15;;;16.75;;
15567;SDS011;7885;42.596;23.044;2022-11-15T11:03:04;18.35;;;14.77;;
15567;SDS011;7885;42.596;23.044;2022-11-15T11:05:35;22.25;;;14.60;;
15567;SDS011;7885;42.596;23.044;2022-11-15T11:08:04;21.60;;;14.35;;
15567;SDS011;7885;42.596;23.044;2022-11-15T11:10:51;20.08;;;15.05;;
15567;SDS011;7885;42.596;23.044;2022-11-15T11:13:21;22.85;;;16.45;;
15567;SDS011;7885;42.596;23.044;2022-11-15T11:15:51;22.90;;;15.48;;
15567;SDS011;7885;42.596;23.044;2022-11-15T11:18:23;21.23;;;14.20;;
15567;SDS011;7885;42.596;23.044;2022-11-15T11:20:56;17.20;;;14.25;;
15567;SDS011;7885;42.596;23.044;2022-11-15T11:23:38;19.13;;;14.00;;
15567;SDS011;7885;42.596;23.044;2022-11-15T11:26:18;17.05;;;14.20;;
15567;SDS011;7885;42.596;23.044;2022-11-15T11:29:00;21.23;;;13.70;;
15567;SDS011;7885;42.596;23.044;2022-11-15T11:31:34;18.85;;;13.73;;
15567;SDS011;7885;42.596;23.044;2022-11-15T11:34:09;20.73;;;14.18;;
15567;SDS011;7885;42.596;23.044;2022-11-15T11:36:45;19.20;;;12.95;;
15567;SDS011;7885;42.596;23.044;2022-11-15T11:39:21;21.80;;;13.32;;
15567;SDS011;7885;42.596;23.044;2022-11-15T11:42:00;17.83;;;13.57;;
15567;SDS011;7885;42.596;23.044;2022-11-15T11:44:39;15.52;;;12.80;;
15567;SDS011;7885;42.596;23.044;2022-11-15T11:47:15;13.38;;;10.73;;
15567;SDS011;7885;42.596;23.044;2022-11-15T11:49:49;14.00;;;11.43;;
15567;SDS011;7885;42.596;23.044;2022-11-15T11:52:21;18.33;;;11.40;;
15567;SDS011;7885;42.596;23.044;2022-11-15T11:54:54;15.25;;;10.70;;
15567;SDS011;7885;42.596;23.044;2022-11-15T11:57:31;13.70;;;10.55;;
15567;SDS011;7885;42.596;23.044;2022-11-15T12:00:11;13.48;;;10.18;;
15567;SDS011;7885;42.596;23.044;2022-11-15T12:02:43;14.05;;;11.30;;
15567;SDS011;7885;42.596;23.044;2022-11-15T12:05:13;12.05;;;9.73;;
15567;SDS011;7885;42.596;23.044;2022-11-15T12:07:46;12.20;;;9.00;;
15567;SDS011;7885;42.596;23.044;2022-11-15T12:10:16;10.70;;;8.85;;
15567;SDS011;7885;42.596;23.044;2022-11-15T12:12:50;12.32;;;8.60;;
15567;SDS011;7885;42.596;23.044;2022-11-15T12:15:23;9.82;;;8.80;;
15567;SDS011;7885;42.596;23.044;2022-11-15T12:17:53;15.55;;;9.43;;
15567;SDS011;7885;42.596;23.044;2022-11-15T12:20:23;9.30;;;8.30;;
15567;SDS011;7885;42.596;23.044;2022-11-15T12:23:03;14.25;;;9.75;;
15567;SDS011;7885;42.596;23.044;2022-11-15T12:25:35;9.18;;;7.78;;
15567;SDS011;7885;42.596;23.044;2022-11-15T12:28:14;9.73;;;7.97;;
15567;SDS011;7885;42.596;23.044;2022-11-15T12:30:50;10.88;;;9.50;;
15567;SDS011;7885;42.596;23.044;2022-11-15T12:33:30;14.45;;;8.27;;
15567;SDS011;7885;42.596;23.044;2022-11-15T12:36:01;7.95;;;5.50;;
15567;SDS011;7885;42.596;23.044;2022-11-15T12:41:23;10.47;;;5.50;;
15567;SDS011;7885;42.596;23.044;2022-11-15T12:43:51;8.43;;;6.40;;
15567;SDS011;7885;42.596;23.044;2022-11-15T12:46:19;6.13;;;5.53;;
15567;SDS011;7885;42.596;23.044;2022-11-15T12:48:50;7.97;;;6.10;;
15567;SDS011;7885;42.596;23.044;2022-11-15T12:51:22;7.13;;;6.00;;
15567;SDS011;7885;42.596;23.044;2022-11-15T13:05:56;6.80;;;6.10;;
15567;SDS011;7885;42.596;23.044;2022-11-15T13:08:35;6.67;;;5.97;;
15567;SDS011;7885;42.596;23.044;2022-11-15T13:20:00;9.97;;;6.40;;
15567;SDS011;7885;42.596;23.044;2022-11-15T13:22:38;9.07;;;7.03;;
15567;SDS011;7885;42.596;23.044;2022-11-15T13:28:22;10.70;;;7.73;;
15567;SDS011;7885;42.596;23.044;2022-11-15T13:30:57;8.47;;;6.87;;
15567;SDS011;7885;42.596;23.044;2022-11-15T13:33:28;10.63;;;7.40;;
15567;SDS011;7885;42.596;23.044;2022-11-15T13:35:58;7.73;;;6.40;;
15567;SDS011;7885;42.596;23.044;2022-11-15T13:38:29;9.07;;;6.30;;
15567;SDS011;7885;42.596;23.044;2022-11-15T13:40:57;19.47;;;6.60;;
15567;SDS011;7885;42.596;23.044;2022-11-15T13:43:27;8.87;;;6.37;;
15567;SDS011;7885;42.596;23.044;2022-11-15T13:46:05;7.83;;;6.23;;
15567;SDS011;7885;42.596;23.044;2022-11-15T13:48:33;11.20;;;7.20;;
15567;SDS011;7885;42.596;23.044;2022-11-15T13:51:00;8.97;;;5.60;;
15567;SDS011;7885;42.596;23.044;2022-11-15T13:53:30;7.97;;;6.00;;
15567;SDS011;7885;42.596;23.044;2022-11-15T13:55:58;7.07;;;5.77;;
15567;SDS011;7885;42.596;23.044;2022-11-15T13:58:25;9.90;;;5.63;;
15567;SDS011;7885;42.596;23.044;2022-11-15T14:00:58;14.43;;;6.70;;
15567;SDS011;7885;42.596;23.044;2022-11-15T14:03:28;6.00;;;4.83;;
15567;SDS011;7885;42.596;23.044;2022-11-15T14:06:06;5.50;;;5.00;;
15567;SDS011;7885;42.596;23.044;2022-11-15T14:08:37;10.33;;;6.57;;
15567;SDS011;7885;42.596;23.044;2022-11-15T14:11:08;15.03;;;9.50;;
15567;SDS011;7885;42.596;23.044;2022-11-15T14:13:39;12.97;;;7.40;;
15567;SDS011;7885;42.596;23.044;2022-11-15T14:16:13;8.03;;;7.10;;
15567;SDS011;7885;42.596;23.044;2022-11-15T14:18:47;7.83;;;7.00;;
15567;SDS011;7885;42.596;23.044;2022-11-15T14:21:15;8.83;;;7.27;;
15567;SDS011;7885;42.596;23.044;2022-11-15T14:23:43;12.50;;;8.07;;
15567;SDS011;7885;42.596;23.044;2022-11-15T14:28:53;10.13;;;7.90;;
15567;SDS011;7885;42.596;23.044;2022-11-15T14:31:19;9.43;;;6.60;;
15567;SDS011;7885;42.596;23.044;2022-11-15T14:33:48;6.50;;;5.60;;
15567;SDS011;7885;42.596;23.044;2022-11-15T14:36:16;6.53;;;5.73;;
15567;SDS011;7885;42.596;23.044;2022-11-15T14:38:44;18.87;;;10.60;;
15567;SDS011;7885;42.596;23.044;2022-11-15T14:41:17;13.60;;;8.60;;
15567;SDS011;7885;42.596;23.044;2022-11-15T14:43:45;19.37;;;9.30;;
15567;SDS011;7885;42.596;23.044;2022-11-15T14:46:12;20.63;;;12.83;;
15567;SDS011;7885;42.596;23.044;2022-11-15T14:48:39;27.23;;;15.07;;
15567;SDS011;7885;42.596;23.044;2022-11-15T14:51:11;31.27;;;11.47;;
15567;SDS011;7885;42.596;23.044;2022-11-15T14:53:39;32.73;;;11.13;;
15567;SDS011;7885;42.596;23.044;2022-11-15T14:56:06;28.80;;;10.00;;
15567;SDS011;7885;42.596;23.044;2022-11-15T14:58:33;52.60;;;16.67;;
15567;SDS011;7885;42.596;23.044;2022-11-15T15:01:00;65.10;;;17.20;;
15567;SDS011;7885;42.596;23.044;2022-11-15T15:03:28;14.47;;;8.13;;
15567;SDS011;7885;42.596;23.044;2022-11-15T15:05:55;15.00;;;6.77;;
15567;SDS011;7885;42.596;23.044;2022-11-15T15:08:23;28.27;;;8.50;;
15567;SDS011;7885;42.596;23.044;2022-11-15T15:10:50;18.63;;;7.20;;
15567;SDS011;7885;42.596;23.044;2022-11-15T15:13:18;25.17;;;8.87;;
15567;SDS011;7885;42.596;23.044;2022-11-15T15:15:46;22.17;;;10.17;;
15567;SDS011;7885;42.596;23.044;2022-11-15T15:18:13;42.37;;;11.70;;
15567;SDS011;7885;42.596;23.044;2022-11-15T15:20:41;37.00;;;10.23;;
15567;SDS011;7885;42.596;23.044;2022-11-15T15:23:10;42.87;;;11.23;;
15567;SDS011;7885;42.596;23.044;2022-11-15T15:25:43;27.17;;;10.23;;
15567;SDS011;7885;42.596;23.044;2022-11-15T15:28:11;25.83;;;12.57;;
15567;SDS011;7885;42.596;23.044;2022-11-15T15:30:38;40.80;;;11.83;;
15567;SDS011;7885;42.596;23.044;2022-11-15T15:33:05;34.57;;;14.17;;
15567;SDS011;7885;42.596;23.044;2022-11-15T15:35:32;28.63;;;20.93;;